sensor_id;sensor_type;location;lat;lon;timestamp;P1;durP1;ratioP1;P2;durP2;ratioP2
13457;SDS011;6801;53.018;11.560;2022-08-05T00:02:05;7.25;;;2.58;;
13457;SDS011;6801;53.018;11.560;2022-08-05T00:04:32;7.88;;;2.17;;
13457;SDS011;6801;53.018;11.560;2022-08-05T00:07:01;9.18;;;3.17;;
13457;SDS011;6801;53.018;11.560;2022-08-05T00:09:28;6.55;;;1.98;;
13457;SDS011;6801;53.018;11.560;2022-08-05T00:11:55;6.75;;;2.88;;
13457;SDS011;6801;53.018;11.560;2022-08-05T00:14:22;10.20;;;2.88;;
13457;SDS011;6801;53.018;11.560;2022-08-05T00:16:49;8.20;;;2.60;;
13457;SDS011;6801;53.018;11.560;2022-08-05T00:19:16;7.03;;;2.20;;
13457;SDS011;6801;53.018;11.560;2022-08-05T00:21:43;7.30;;;2.53;;
13457;SDS011;6801;53.018;11.560;2022-08-05T00:24:11;9.07;;;2.40;;
13457;SDS011;6801;53.018;11.560;2022-08-05T00:26:38;7.90;;;2.97;;
13457;SDS011;6801;53.018;11.560;2022-08-05T00:29:05;14.73;;;3.53;;
13457;SDS011;6801;53.018;11.560;2022-08-05T00:31:32;6.30;;;2.70;;
13457;SDS011;6801;53.018;11.560;2022-08-05T00:33:59;11.25;;;2.78;;
13457;SDS011;6801;53.018;11.560;2022-08-05T00:36:25;4.15;;;2.03;;
13457;SDS011;6801;53.018;11.560;2022-08-05T00:38:52;4.97;;;2.00;;
13457;SDS011;6801;53.018;11.560;2022-08-05T00:41:27;5.35;;;2.13;;
13457;SDS011;6801;53.018;11.560;2022-08-05T00:43:55;6.72;;;2.38;;
13457;SDS011;6801;53.018;11.560;2022-08-05T00:46:23;6.30;;;2.25;;
13457;SDS011;6801;53.018;11.560;2022-08-05T00:48:50;3.20;;;1.90;;
13457;SDS011;6801;53.018;11.560;2022-08-05T00:51:17;6.65;;;2.50;;
13457;SDS011;6801;53.018;11.560;2022-08-05T00:53:44;9.52;;;2.80;;
13457;SDS011;6801;53.018;11.560;2022-08-05T00:56:11;9.88;;;2.65;;
13457;SDS011;6801;53.018;11.560;2022-08-05T00:58:39;5.65;;;2.30;;
13457;SDS011;6801;53.018;11.560;2022-08-05T01:01:06;7.63;;;2.95;;
13457;SDS011;6801;53.018;11.560;2022-08-05T01:03:34;5.05;;;2.03;;
13457;SDS011;6801;53.018;11.560;2022-08-05T01:06:01;6.40;;;2.45;;
13457;SDS011;6801;53.018;11.560;2022-08-05T01:08:28;6.85;;;2.20;;
13457;SDS011;6801;53.018;11.560;2022-08-05T01:10:57;7.63;;;2.55;;
13457;SDS011;6801;53.018;11.560;2022-08-05T01:13:30;7.05;;;2.40;;
13457;SDS011;6801;53.018;11.560;2022-08-05T01:16:04;6.90;;;2.63;;
13457;SDS011;6801;53.018;11.560;2022-08-05T01:18:39;5.55;;;2.22;;
13457;SDS011;6801;53.018;11.560;2022-08-05T01:21:13;8.15;;;3.53;;
13457;SDS011;6801;53.018;11.560;2022-08-05T01:23:53;7.28;;;2.22;;
13457;SDS011;6801;53.018;11.560;2022-08-05T01:26:41;8.30;;;2.75;;
13457;SDS011;6801;53.018;11.560;2022-08-05T01:29:25;6.35;;;2.75;;
13457;SDS011;6801;53.018;11.560;2022-08-05T01:31:58;5.95;;;2.13;;
13457;SDS011;6801;53.018;11.560;2022-08-05T01:34:29;6.20;;;2.50;;
13457;SDS011;6801;53.018;11.560;2022-08-05T01:37:01;5.55;;;3.33;;
13457;SDS011;6801;53.018;11.560;2022-08-05T01:39:33;3.40;;;2.13;;
13457;SDS011;6801;53.018;11.560;2022-08-05T01:42:02;7.07;;;2.35;;
13457;SDS011;6801;53.018;11.560;2022-08-05T01:44:32;7.50;;;2.63;;
13457;SDS011;6801;53.018;11.560;2022-08-05T01:47:01;4.65;;;2.10;;
13457;SDS011;6801;53.018;11.560;2022-08-05T01:49:28;6.13;;;2.33;;
13457;SDS011;6801;53.018;11.560;2022-08-05T01:51:57;7.05;;;2.95;;
13457;SDS011;6801;53.018;11.560;2022-08-05T01:54:27;11.85;;;3.25;;
13457;SDS011;6801;53.018;11.560;2022-08-05T01:56:57;5.25;;;2.25;;
13457;SDS011;6801;53.018;11.560;2022-08-05T01:59:26;7.95;;;3.13;;
13457;SDS011;6801;53.018;11.560;2022-08-05T02:01:57;6.85;;;3.55;;
13457;SDS011;6801;53.018;11.560;2022-08-05T02:04:26;6.78;;;2.92;;
13457;SDS011;6801;53.018;11.560;2022-08-05T02:06:55;7.35;;;2.97;;
13457;SDS011;6801;53.018;11.560;2022-08-05T02:09:22;7.32;;;2.85;;
13457;SDS011;6801;53.018;11.560;2022-08-05T02:11:50;7.15;;;3.38;;
13457;SDS011;6801;53.018;11.560;2022-08-05T02:14:25;7.18;;;3.47;;
13457;SDS011;6801;53.018;11.560;2022-08-05T02:16:58;5.85;;;2.17;;
13457;SDS011;6801;53.018;11.560;2022-08-05T02:19:31;5.25;;;2.60;;
13457;SDS011;6801;53.018;11.560;2022-08-05T02:24:31;7.28;;;2.80;;
13457;SDS011;6801;53.018;11.560;2022-08-05T02:27:02;6.75;;;2.90;;
13457;SDS011;6801;53.018;11.560;2022-08-05T02:29:33;4.38;;;2.50;;
13457;SDS011;6801;53.018;11.560;2022-08-05T02:32:03;6.63;;;2.45;;
13457;SDS011;6801;53.018;11.560;2022-08-05T02:34:33;5.22;;;2.30;;
13457;SDS011;6801;53.018;11.560;2022-08-05T02:37:02;6.30;;;2.35;;
13457;SDS011;6801;53.018;11.560;2022-08-05T02:39:34;8.07;;;2.90;;
13457;SDS011;6801;53.018;11.560;2022-08-05T02:42:03;6.18;;;2.75;;
13457;SDS011;6801;53.018;11.560;2022-08-05T02:44:33;6.23;;;2.27;;
13457;SDS011;6801;53.018;11.560;2022-08-05T02:47:03;6.80;;;3.15;;
13457;SDS011;6801;53.018;11.560;2022-08-05T02:49:32;6.10;;;3.15;;
13457;SDS011;6801;53.018;11.560;2022-08-05T02:54:28;8.70;;;3.63;;
13457;SDS011;6801;53.018;11.560;2022-08-05T02:56:56;10.07;;;4.28;;
13457;SDS011;6801;53.018;11.560;2022-08-05T02:59:25;7.88;;;2.50;;
13457;SDS011;6801;53.018;11.560;2022-08-05T03:01:55;7.82;;;2.80;;
13457;SDS011;6801;53.018;11.560;2022-08-05T03:04:26;5.97;;;2.33;;
13457;SDS011;6801;53.018;11.560;2022-08-05T03:06:53;7.83;;;2.97;;
13457;SDS011;6801;53.018;11.560;2022-08-05T03:09:21;5.75;;;2.60;;
13457;SDS011;6801;53.018;11.560;2022-08-05T03:11:48;7.35;;;2.95;;
13457;SDS011;6801;53.018;11.560;2022-08-05T03:14:16;8.68;;;3.47;;
13457;SDS011;6801;53.018;11.560;2022-08-05T03:16:43;5.55;;;2.90;;
13457;SDS011;6801;53.018;11.560;2022-08-05T03:19:09;10.90;;;4.55;;
13457;SDS011;6801;53.018;11.560;2022-08-05T03:21:38;9.73;;;3.60;;
13457;SDS011;6801;53.018;11.560;2022-08-05T03:24:05;9.77;;;3.85;;
13457;SDS011;6801;53.018;11.560;2022-08-05T03:26:34;8.70;;;3.58;;
13457;SDS011;6801;53.018;11.560;2022-08-05T03:29:01;7.50;;;3.22;;
13457;SDS011;6801;53.018;11.560;2022-08-05T03:31:28;10.05;;;3.30;;
13457;SDS011;6801;53.018;11.560;2022-08-05T03:33:56;8.05;;;4.10;;
13457;SDS011;6801;53.018;11.560;2022-08-05T03:36:23;7.88;;;3.70;;
13457;SDS011;6801;53.018;11.560;2022-08-05T03:38:53;8.57;;;4.18;;
13457;SDS011;6801;53.018;11.560;2022-08-05T03:41:20;8.57;;;3.53;;
13457;SDS011;6801;53.018;11.560;2022-08-05T03:43:47;11.32;;;3.20;;
13457;SDS011;6801;53.018;11.560;2022-08-05T03:46:14;6.95;;;3.47;;
13457;SDS011;6801;53.018;11.560;2022-08-05T03:48:41;11.15;;;4.20;;
13457;SDS011;6801;53.018;11.560;2022-08-05T03:51:10;7.72;;;3.78;;
13457;SDS011;6801;53.018;11.560;2022-08-05T03:53:40;10.40;;;4.78;;
13457;SDS011;6801;53.018;11.560;2022-08-05T03:56:16;11.20;;;5.25;;
13457;SDS011;6801;53.018;11.560;2022-08-05T03:58:54;7.88;;;3.97;;
13457;SDS011;6801;53.018;11.560;2022-08-05T04:01:25;11.93;;;5.38;;
13457;SDS011;6801;53.018;11.560;2022-08-05T04:03:55;12.75;;;4.57;;
13457;SDS011;6801;53.018;11.560;2022-08-05T04:06:23;11.38;;;5.55;;
13457;SDS011;6801;53.018;11.560;2022-08-05T04:08:51;10.15;;;3.80;;
13457;SDS011;6801;53.018;11.560;2022-08-05T04:11:20;7.85;;;4.35;;
13457;SDS011;6801;53.018;11.560;2022-08-05T04:13:47;9.35;;;4.47;;
13457;SDS011;6801;53.018;11.560;2022-08-05T04:16:15;10.88;;;5.40;;
13457;SDS011;6801;53.018;11.560;2022-08-05T04:18:43;11.38;;;5.57;;
13457;SDS011;6801;53.018;11.560;2022-08-05T04:21:10;10.88;;;5.75;;
13457;SDS011;6801;53.018;11.560;2022-08-05T04:23:37;10.73;;;4.97;;
13457;SDS011;6801;53.018;11.560;2022-08-05T04:26:04;9.70;;;5.65;;
13457;SDS011;6801;53.018;11.560;2022-08-05T04:28:33;10.57;;;4.75;;
13457;SDS011;6801;53.018;11.560;2022-08-05T04:31:00;8.77;;;4.80;;
13457;SDS011;6801;53.018;11.560;2022-08-05T04:33:28;8.68;;;4.25;;
13457;SDS011;6801;53.018;11.560;2022-08-05T04:35:55;15.52;;;7.32;;
13457;SDS011;6801;53.018;11.560;2022-08-05T04:38:22;13.43;;;8.15;;
13457;SDS011;6801;53.018;11.560;2022-08-05T04:40:49;14.18;;;6.97;;
13457;SDS011;6801;53.018;11.560;2022-08-05T04:43:16;15.98;;;7.22;;
13457;SDS011;6801;53.018;11.560;2022-08-05T04:45:44;10.07;;;5.18;;
13457;SDS011;6801;53.018;11.560;2022-08-05T04:48:13;12.95;;;7.68;;
13457;SDS011;6801;53.018;11.560;2022-08-05T04:50:41;12.20;;;7.53;;
13457;SDS011;6801;53.018;11.560;2022-08-05T04:53:09;15.90;;;6.70;;
13457;SDS011;6801;53.018;11.560;2022-08-05T04:55:37;12.25;;;5.55;;
13457;SDS011;6801;53.018;11.560;2022-08-05T04:58:05;18.08;;;8.25;;
13457;SDS011;6801;53.018;11.560;2022-08-05T05:00:34;14.38;;;8.43;;
13457;SDS011;6801;53.018;11.560;2022-08-05T05:03:03;11.50;;;5.43;;
13457;SDS011;6801;53.018;11.560;2022-08-05T05:07:59;11.98;;;6.20;;
13457;SDS011;6801;53.018;11.560;2022-08-05T05:10:27;10.77;;;5.15;;
13457;SDS011;6801;53.018;11.560;2022-08-05T05:12:55;10.70;;;5.82;;
13457;SDS011;6801;53.018;11.560;2022-08-05T05:15:22;9.73;;;5.35;;
13457;SDS011;6801;53.018;11.560;2022-08-05T05:17:49;22.73;;;9.75;;
13457;SDS011;6801;53.018;11.560;2022-08-05T05:20:18;23.10;;;10.13;;
13457;SDS011;6801;53.018;11.560;2022-08-05T05:22:45;15.65;;;7.68;;
13457;SDS011;6801;53.018;11.560;2022-08-05T05:25:13;17.23;;;8.48;;
13457;SDS011;6801;53.018;11.560;2022-08-05T05:27:40;14.25;;;7.85;;
13457;SDS011;6801;53.018;11.560;2022-08-05T05:30:07;18.65;;;9.30;;
13457;SDS011;6801;53.018;11.560;2022-08-05T05:32:35;17.08;;;8.90;;
13457;SDS011;6801;53.018;11.560;2022-08-05T05:35:02;11.90;;;6.55;;
13457;SDS011;6801;53.018;11.560;2022-08-05T05:37:31;15.70;;;8.27;;
13457;SDS011;6801;53.018;11.560;2022-08-05T05:39:58;10.60;;;5.35;;
13457;SDS011;6801;53.018;11.560;2022-08-05T05:42:24;10.63;;;5.38;;
13457;SDS011;6801;53.018;11.560;2022-08-05T05:44:51;13.82;;;7.65;;
13457;SDS011;6801;53.018;11.560;2022-08-05T05:47:18;9.82;;;4.97;;
13457;SDS011;6801;53.018;11.560;2022-08-05T05:49:45;9.90;;;4.95;;
13457;SDS011;6801;53.018;11.560;2022-08-05T05:52:12;8.15;;;4.78;;
13457;SDS011;6801;53.018;11.560;2022-08-05T05:54:40;7.05;;;4.05;;
13457;SDS011;6801;53.018;11.560;2022-08-05T05:57:07;17.42;;;7.03;;
13457;SDS011;6801;53.018;11.560;2022-08-05T05:59:34;9.20;;;5.03;;
13457;SDS011;6801;53.018;11.560;2022-08-05T06:02:01;13.02;;;7.68;;
13457;SDS011;6801;53.018;11.560;2022-08-05T06:04:28;14.60;;;7.18;;
13457;SDS011;6801;53.018;11.560;2022-08-05T06:06:55;10.00;;;7.30;;
13457;SDS011;6801;53.018;11.560;2022-08-05T06:09:22;9.38;;;4.40;;
13457;SDS011;6801;53.018;11.560;2022-08-05T06:11:50;7.45;;;3.95;;
13457;SDS011;6801;53.018;11.560;2022-08-05T06:14:17;12.60;;;6.05;;
13457;SDS011;6801;53.018;11.560;2022-08-05T06:16:44;10.35;;;6.40;;
13457;SDS011;6801;53.018;11.560;2022-08-05T06:19:12;9.40;;;4.68;;
13457;SDS011;6801;53.018;11.560;2022-08-05T06:21:39;14.63;;;7.03;;
13457;SDS011;6801;53.018;11.560;2022-08-05T06:24:06;12.80;;;7.25;;
13457;SDS011;6801;53.018;11.560;2022-08-05T06:26:33;9.73;;;5.25;;
13457;SDS011;6801;53.018;11.560;2022-08-05T06:29:02;12.40;;;6.05;;
13457;SDS011;6801;53.018;11.560;2022-08-05T06:31:29;14.35;;;7.25;;
13457;SDS011;6801;53.018;11.560;2022-08-05T06:33:56;10.77;;;6.30;;
13457;SDS011;6801;53.018;11.560;2022-08-05T06:36:23;10.05;;;5.15;;
13457;SDS011;6801;53.018;11.560;2022-08-05T06:38:50;7.22;;;4.30;;
13457;SDS011;6801;53.018;11.560;2022-08-05T06:41:19;8.35;;;4.85;;
13457;SDS011;6801;53.018;11.560;2022-08-05T06:43:46;7.90;;;3.83;;
13457;SDS011;6801;53.018;11.560;2022-08-05T06:46:15;8.25;;;4.50;;
13457;SDS011;6801;53.018;11.560;2022-08-05T06:48:42;10.32;;;4.25;;
13457;SDS011;6801;53.018;11.560;2022-08-05T06:51:08;10.23;;;5.82;;
13457;SDS011;6801;53.018;11.560;2022-08-05T06:53:35;10.50;;;6.55;;
13457;SDS011;6801;53.018;11.560;2022-08-05T06:56:03;10.02;;;4.95;;
13457;SDS011;6801;53.018;11.560;2022-08-05T06:58:33;7.60;;;4.47;;
13457;SDS011;6801;53.018;11.560;2022-08-05T07:01:00;7.35;;;4.38;;
13457;SDS011;6801;53.018;11.560;2022-08-05T07:03:29;12.23;;;7.45;;
13457;SDS011;6801;53.018;11.560;2022-08-05T07:05:56;10.07;;;4.30;;
13457;SDS011;6801;53.018;11.560;2022-08-05T07:08:24;6.25;;;4.28;;
13457;SDS011;6801;53.018;11.560;2022-08-05T07:10:52;9.75;;;4.15;;
13457;SDS011;6801;53.018;11.560;2022-08-05T07:13:20;6.95;;;5.07;;
13457;SDS011;6801;53.018;11.560;2022-08-05T07:16:05;11.40;;;4.55;;
13457;SDS011;6801;53.018;11.560;2022-08-05T07:18:51;9.85;;;5.45;;
13457;SDS011;6801;53.018;11.560;2022-08-05T07:21:18;5.43;;;4.03;;
13457;SDS011;6801;53.018;11.560;2022-08-05T07:23:45;6.25;;;3.75;;
13457;SDS011;6801;53.018;11.560;2022-08-05T07:26:12;9.18;;;4.75;;
13457;SDS011;6801;53.018;11.560;2022-08-05T07:28:39;10.02;;;4.70;;
13457;SDS011;6801;53.018;11.560;2022-08-05T07:31:06;9.57;;;6.10;;
13457;SDS011;6801;53.018;11.560;2022-08-05T07:33:33;12.65;;;6.47;;
13457;SDS011;6801;53.018;11.560;2022-08-05T07:36:01;8.25;;;4.18;;
13457;SDS011;6801;53.018;11.560;2022-08-05T07:38:28;7.20;;;4.25;;
13457;SDS011;6801;53.018;11.560;2022-08-05T07:40:55;7.90;;;4.20;;
13457;SDS011;6801;53.018;11.560;2022-08-05T07:43:22;5.53;;;3.58;;
13457;SDS011;6801;53.018;11.560;2022-08-05T07:45:49;7.65;;;4.30;;
13457;SDS011;6801;53.018;11.560;2022-08-05T07:48:16;5.88;;;3.75;;
13457;SDS011;6801;53.018;11.560;2022-08-05T07:50:43;9.80;;;5.32;;
13457;SDS011;6801;53.018;11.560;2022-08-05T07:53:11;6.90;;;4.00;;
13457;SDS011;6801;53.018;11.560;2022-08-05T07:55:38;6.60;;;3.85;;
13457;SDS011;6801;53.018;11.560;2022-08-05T07:58:05;8.15;;;4.82;;
13457;SDS011;6801;53.018;11.560;2022-08-05T08:00:32;8.88;;;4.65;;
13457;SDS011;6801;53.018;11.560;2022-08-05T08:02:59;9.95;;;4.97;;
13457;SDS011;6801;53.018;11.560;2022-08-05T08:05:26;8.77;;;5.50;;
13457;SDS011;6801;53.018;11.560;2022-08-05T08:07:53;8.98;;;3.42;;
13457;SDS011;6801;53.018;11.560;2022-08-05T08:10:21;5.15;;;2.72;;
13457;SDS011;6801;53.018;11.560;2022-08-05T08:12:49;5.70;;;3.92;;
13457;SDS011;6801;53.018;11.560;2022-08-05T08:15:16;6.80;;;4.70;;
13457;SDS011;6801;53.018;11.560;2022-08-05T08:17:43;5.10;;;2.67;;
13457;SDS011;6801;53.018;11.560;2022-08-05T08:20:10;6.82;;;4.45;;
13457;SDS011;6801;53.018;11.560;2022-08-05T08:22:37;8.30;;;3.85;;
13457;SDS011;6801;53.018;11.560;2022-08-05T08:25:05;7.40;;;4.03;;
13457;SDS011;6801;53.018;11.560;2022-08-05T08:27:34;8.32;;;4.30;;
13457;SDS011;6801;53.018;11.560;2022-08-05T08:30:01;6.43;;;3.15;;
13457;SDS011;6801;53.018;11.560;2022-08-05T08:32:29;4.93;;;3.20;;
13457;SDS011;6801;53.018;11.560;2022-08-05T08:35:00;7.30;;;3.53;;
13457;SDS011;6801;53.018;11.560;2022-08-05T08:37:27;5.03;;;3.22;;
13457;SDS011;6801;53.018;11.560;2022-08-05T08:39:54;6.30;;;3.53;;
13457;SDS011;6801;53.018;11.560;2022-08-05T08:42:21;4.63;;;3.13;;
13457;SDS011;6801;53.018;11.560;2022-08-05T08:44:50;3.58;;;2.80;;
13457;SDS011;6801;53.018;11.560;2022-08-05T08:47:21;6.55;;;4.28;;
13457;SDS011;6801;53.018;11.560;2022-08-05T08:49:50;5.72;;;3.70;;
13457;SDS011;6801;53.018;11.560;2022-08-05T08:52:21;6.53;;;5.20;;
13457;SDS011;6801;53.018;11.560;2022-08-05T08:54:50;9.60;;;6.25;;
13457;SDS011;6801;53.018;11.560;2022-08-05T08:57:19;6.75;;;4.45;;
13457;SDS011;6801;53.018;11.560;2022-08-05T08:59:46;7.53;;;4.28;;
13457;SDS011;6801;53.018;11.560;2022-08-05T09:02:15;7.15;;;4.20;;
13457;SDS011;6801;53.018;11.560;2022-08-05T09:04:45;5.38;;;4.35;;
13457;SDS011;6801;53.018;11.560;2022-08-05T09:07:12;6.75;;;4.43;;
13457;SDS011;6801;53.018;11.560;2022-08-05T09:09:39;7.20;;;3.83;;
13457;SDS011;6801;53.018;11.560;2022-08-05T09:12:08;8.32;;;4.30;;
13457;SDS011;6801;53.018;11.560;2022-08-05T09:14:36;8.02;;;4.22;;
13457;SDS011;6801;53.018;11.560;2022-08-05T09:17:04;6.32;;;4.00;;
13457;SDS011;6801;53.018;11.560;2022-08-05T09:19:34;7.78;;;4.10;;
13457;SDS011;6801;53.018;11.560;2022-08-05T09:22:02;6.80;;;4.90;;
13457;SDS011;6801;53.018;11.560;2022-08-05T09:24:29;5.97;;;3.45;;
13457;SDS011;6801;53.018;11.560;2022-08-05T09:26:56;11.55;;;7.25;;
13457;SDS011;6801;53.018;11.560;2022-08-05T09:29:35;8.05;;;4.55;;
13457;SDS011;6801;53.018;11.560;2022-08-05T09:32:06;7.10;;;4.63;;
13457;SDS011;6801;53.018;11.560;2022-08-05T09:34:50;7.93;;;4.75;;
13457;SDS011;6801;53.018;11.560;2022-08-05T09:37:18;6.70;;;4.82;;
13457;SDS011;6801;53.018;11.560;2022-08-05T09:39:46;10.13;;;5.28;;
13457;SDS011;6801;53.018;11.560;2022-08-05T09:42:13;7.95;;;4.38;;
13457;SDS011;6801;53.018;11.560;2022-08-05T09:44:44;7.68;;;4.45;;
13457;SDS011;6801;53.018;11.560;2022-08-05T09:47:13;10.00;;;5.10;;
13457;SDS011;6801;53.018;11.560;2022-08-05T09:49:43;11.65;;;6.68;;
13457;SDS011;6801;53.018;11.560;2022-08-05T09:52:23;11.15;;;5.45;;
13457;SDS011;6801;53.018;11.560;2022-08-05T09:54:58;8.82;;;3.97;;
13457;SDS011;6801;53.018;11.560;2022-08-05T09:57:33;8.20;;;4.80;;
13457;SDS011;6801;53.018;11.560;2022-08-05T10:00:04;14.02;;;6.22;;
13457;SDS011;6801;53.018;11.560;2022-08-05T10:02:36;8.77;;;5.78;;
13457;SDS011;6801;53.018;11.560;2022-08-05T10:05:05;9.52;;;6.22;;
13457;SDS011;6801;53.018;11.560;2022-08-05T10:07:45;11.65;;;5.78;;
13457;SDS011;6801;53.018;11.560;2022-08-05T10:10:17;8.82;;;4.55;;
13457;SDS011;6801;53.018;11.560;2022-08-05T10:12:46;8.82;;;5.25;;
13457;SDS011;6801;53.018;11.560;2022-08-05T10:15:17;13.82;;;7.13;;
13457;SDS011;6801;53.018;11.560;2022-08-05T10:20:34;13.25;;;7.32;;
13457;SDS011;6801;53.018;11.560;2022-08-05T10:23:04;18.38;;;8.48;;
13457;SDS011;6801;53.018;11.560;2022-08-05T10:25:31;11.68;;;8.23;;
13457;SDS011;6801;53.018;11.560;2022-08-05T10:27:58;9.70;;;6.60;;
13457;SDS011;6801;53.018;11.560;2022-08-05T10:30:26;12.02;;;6.25;;
13457;SDS011;6801;53.018;11.560;2022-08-05T10:32:54;11.55;;;7.18;;
13457;SDS011;6801;53.018;11.560;2022-08-05T10:35:23;9.48;;;6.38;;
13457;SDS011;6801;53.018;11.560;2022-08-05T10:37:50;10.20;;;6.47;;
13457;SDS011;6801;53.018;11.560;2022-08-05T10:40:20;7.65;;;4.50;;
13457;SDS011;6801;53.018;11.560;2022-08-05T10:42:53;7.93;;;4.22;;
13457;SDS011;6801;53.018;11.560;2022-08-05T10:45:30;4.05;;;2.95;;
13457;SDS011;6801;53.018;11.560;2022-08-05T10:47:59;6.00;;;2.90;;
13457;SDS011;6801;53.018;11.560;2022-08-05T10:51:00;2.63;;;2.28;;
13457;SDS011;6801;53.018;11.560;2022-08-05T10:53:32;3.63;;;2.55;;
13457;SDS011;6801;53.018;11.560;2022-08-05T10:56:02;3.13;;;1.65;;
13457;SDS011;6801;53.018;11.560;2022-08-05T10:58:31;2.75;;;1.70;;
13457;SDS011;6801;53.018;11.560;2022-08-05T11:00:59;4.18;;;1.80;;
13457;SDS011;6801;53.018;11.560;2022-08-05T11:03:30;3.88;;;1.88;;
13457;SDS011;6801;53.018;11.560;2022-08-05T11:06:08;2.75;;;1.90;;
13457;SDS011;6801;53.018;11.560;2022-08-05T11:08:36;3.45;;;1.90;;
13457;SDS011;6801;53.018;11.560;2022-08-05T11:14:00;3.92;;;1.77;;
13457;SDS011;6801;53.018;11.560;2022-08-05T11:16:28;1.77;;;1.45;;
13457;SDS011;6801;53.018;11.560;2022-08-05T11:21:52;2.28;;;1.10;;
13457;SDS011;6801;53.018;11.560;2022-08-05T11:24:20;1.75;;;1.15;;
13457;SDS011;6801;53.018;11.560;2022-08-05T11:26:49;1.73;;;1.23;;
13457;SDS011;6801;53.018;11.560;2022-08-05T11:29:33;2.20;;;1.30;;
13457;SDS011;6801;53.018;11.560;2022-08-05T11:34:49;1.73;;;1.00;;
13457;SDS011;6801;53.018;11.560;2022-08-05T11:40:31;1.60;;;1.00;;
13457;SDS011;6801;53.018;11.560;2022-08-05T11:43:26;2.17;;;1.05;;
13457;SDS011;6801;53.018;11.560;2022-08-05T11:45:54;2.58;;;0.93;;
13457;SDS011;6801;53.018;11.560;2022-08-05T11:48:21;1.42;;;0.95;;
13457;SDS011;6801;53.018;11.560;2022-08-05T11:50:48;2.17;;;1.60;;
13457;SDS011;6801;53.018;11.560;2022-08-05T11:53:15;2.40;;;1.30;;
13457;SDS011;6801;53.018;11.560;2022-08-05T11:55:53;2.53;;;1.75;;
13457;SDS011;6801;53.018;11.560;2022-08-05T11:58:28;1.98;;;1.27;;
13457;SDS011;6801;53.018;11.560;2022-08-05T12:01:01;3.95;;;1.10;;
13457;SDS011;6801;53.018;11.560;2022-08-05T12:03:29;3.55;;;2.28;;
13457;SDS011;6801;53.018;11.560;2022-08-05T12:06:07;2.08;;;1.38;;
13457;SDS011;6801;53.018;11.560;2022-08-05T12:08:41;1.77;;;1.60;;
13457;SDS011;6801;53.018;11.560;2022-08-05T12:11:09;2.65;;;1.65;;
13457;SDS011;6801;53.018;11.560;2022-08-05T12:13:52;3.63;;;1.85;;
13457;SDS011;6801;53.018;11.560;2022-08-05T12:16:20;1.65;;;1.45;;
13457;SDS011;6801;53.018;11.560;2022-08-05T12:18:48;2.22;;;1.27;;
13457;SDS011;6801;53.018;11.560;2022-08-05T12:21:18;1.88;;;1.10;;
13457;SDS011;6801;53.018;11.560;2022-08-05T12:23:56;1.25;;;1.00;;
13457;SDS011;6801;53.018;11.560;2022-08-05T12:26:29;2.33;;;1.30;;
13457;SDS011;6801;53.018;11.560;2022-08-05T12:28:58;3.55;;;1.58;;
13457;SDS011;6801;53.018;11.560;2022-08-05T12:31:25;3.08;;;1.40;;
13457;SDS011;6801;53.018;11.560;2022-08-05T12:33:52;3.30;;;1.73;;
13457;SDS011;6801;53.018;11.560;2022-08-05T12:36:21;4.68;;;2.00;;
13457;SDS011;6801;53.018;11.560;2022-08-05T12:38:48;3.92;;;1.40;;
13457;SDS011;6801;53.018;11.560;2022-08-05T12:41:15;3.58;;;1.50;;
13457;SDS011;6801;53.018;11.560;2022-08-05T12:43:49;2.33;;;1.30;;
13457;SDS011;6801;53.018;11.560;2022-08-05T12:46:22;3.25;;;1.95;;
13457;SDS011;6801;53.018;11.560;2022-08-05T12:48:57;2.28;;;1.67;;
13457;SDS011;6801;53.018;11.560;2022-08-05T12:51:27;6.00;;;1.73;;
13457;SDS011;6801;53.018;11.560;2022-08-05T12:53:58;5.38;;;1.80;;
13457;SDS011;6801;53.018;11.560;2022-08-05T12:56:27;2.60;;;1.63;;
13457;SDS011;6801;53.018;11.560;2022-08-05T12:59:12;3.45;;;1.73;;
13457;SDS011;6801;53.018;11.560;2022-08-05T13:01:42;3.95;;;1.88;;
13457;SDS011;6801;53.018;11.560;2022-08-05T13:04:10;4.68;;;2.03;;
13457;SDS011;6801;53.018;11.560;2022-08-05T13:06:39;2.03;;;1.50;;
13457;SDS011;6801;53.018;11.560;2022-08-05T13:09:08;2.95;;;1.13;;
13457;SDS011;6801;53.018;11.560;2022-08-05T13:11:37;1.75;;;1.10;;
13457;SDS011;6801;53.018;11.560;2022-08-05T13:16:54;3.58;;;1.75;;
13457;SDS011;6801;53.018;11.560;2022-08-05T13:19:24;2.90;;;1.20;;
13457;SDS011;6801;53.018;11.560;2022-08-05T13:21:52;1.23;;;0.80;;
13457;SDS011;6801;53.018;11.560;2022-08-05T13:24:20;3.78;;;1.58;;
13457;SDS011;6801;53.018;11.560;2022-08-05T13:26:48;4.72;;;1.05;;
13457;SDS011;6801;53.018;11.560;2022-08-05T13:29:17;2.05;;;1.00;;
13457;SDS011;6801;53.018;11.560;2022-08-05T13:31:45;1.92;;;0.75;;
13457;SDS011;6801;53.018;11.560;2022-08-05T13:34:13;5.30;;;1.58;;
13457;SDS011;6801;53.018;11.560;2022-08-05T13:36:41;3.72;;;1.20;;
13457;SDS011;6801;53.018;11.560;2022-08-05T13:39:08;3.05;;;0.93;;
13457;SDS011;6801;53.018;11.560;2022-08-05T13:41:37;4.50;;;1.20;;
13457;SDS011;6801;53.018;11.560;2022-08-05T13:44:04;3.78;;;1.30;;
13457;SDS011;6801;53.018;11.560;2022-08-05T13:46:32;2.83;;;1.10;;
13457;SDS011;6801;53.018;11.560;2022-08-05T13:48:59;2.63;;;1.23;;
13457;SDS011;6801;53.018;11.560;2022-08-05T13:51:31;2.83;;;1.10;;
13457;SDS011;6801;53.018;11.560;2022-08-05T13:53:59;4.03;;;1.10;;
13457;SDS011;6801;53.018;11.560;2022-08-05T13:56:26;4.53;;;0.82;;
13457;SDS011;6801;53.018;11.560;2022-08-05T13:58:52;0.85;;;0.50;;
13457;SDS011;6801;53.018;11.560;2022-08-05T14:01:20;1.63;;;0.77;;
13457;SDS011;6801;53.018;11.560;2022-08-05T14:03:47;1.85;;;0.80;;
13457;SDS011;6801;53.018;11.560;2022-08-05T14:06:28;1.40;;;0.60;;
13457;SDS011;6801;53.018;11.560;2022-08-05T14:08:56;1.67;;;0.60;;
13457;SDS011;6801;53.018;11.560;2022-08-05T14:11:24;2.50;;;0.80;;
13457;SDS011;6801;53.018;11.560;2022-08-05T14:13:52;1.95;;;0.77;;
13457;SDS011;6801;53.018;11.560;2022-08-05T14:16:19;1.42;;;0.50;;
13457;SDS011;6801;53.018;11.560;2022-08-05T14:18:46;1.45;;;0.57;;
13457;SDS011;6801;53.018;11.560;2022-08-05T14:21:13;1.50;;;0.50;;
13457;SDS011;6801;53.018;11.560;2022-08-05T14:23:40;0.85;;;0.50;;
13457;SDS011;6801;53.018;11.560;2022-08-05T14:26:08;2.67;;;0.80;;
13457;SDS011;6801;53.018;11.560;2022-08-05T14:28:35;2.80;;;1.13;;
13457;SDS011;6801;53.018;11.560;2022-08-05T14:31:02;2.22;;;0.57;;
13457;SDS011;6801;53.018;11.560;2022-08-05T14:33:29;1.02;;;0.57;;
13457;SDS011;6801;53.018;11.560;2022-08-05T14:35:57;1.40;;;0.50;;
13457;SDS011;6801;53.018;11.560;2022-08-05T14:38:25;1.05;;;0.80;;
13457;SDS011;6801;53.018;11.560;2022-08-05T14:40:52;1.33;;;0.65;;
13457;SDS011;6801;53.018;11.560;2022-08-05T14:43:20;1.50;;;0.68;;
13457;SDS011;6801;53.018;11.560;2022-08-05T14:45:47;0.95;;;0.40;;
13457;SDS011;6801;53.018;11.560;2022-08-05T14:48:14;1.80;;;0.45;;
13457;SDS011;6801;53.018;11.560;2022-08-05T14:50:41;1.45;;;0.60;;
13457;SDS011;6801;53.018;11.560;2022-08-05T14:53:08;2.63;;;0.80;;
13457;SDS011;6801;53.018;11.560;2022-08-05T14:55:36;2.65;;;0.65;;
13457;SDS011;6801;53.018;11.560;2022-08-05T14:58:03;1.60;;;0.40;;
13457;SDS011;6801;53.018;11.560;2022-08-05T15:00:32;2.20;;;0.55;;
13457;SDS011;6801;53.018;11.560;2022-08-05T15:02:59;1.25;;;0.40;;
13457;SDS011;6801;53.018;11.560;2022-08-05T15:05:26;1.67;;;0.85;;
13457;SDS011;6801;53.018;11.560;2022-08-05T15:07:53;1.95;;;0.70;;
13457;SDS011;6801;53.018;11.560;2022-08-05T15:10:20;2.25;;;0.77;;
13457;SDS011;6801;53.018;11.560;2022-08-05T15:12:47;3.28;;;1.25;;
13457;SDS011;6801;53.018;11.560;2022-08-05T15:15:15;1.13;;;0.45;;
13457;SDS011;6801;53.018;11.560;2022-08-05T15:17:43;1.75;;;0.88;;
13457;SDS011;6801;53.018;11.560;2022-08-05T15:20:10;0.85;;;0.50;;
13457;SDS011;6801;53.018;11.560;2022-08-05T15:22:38;2.10;;;0.90;;